Latest Coastal Weather Observations for East Sale

IDV60701

Issued at 5:51 pm EST Saturday 5 September 2015 (issued every 10 minutes, with the page automatically refreshed every 10 minutes)

About coastal observations | Map of coastal stations | Coastal observations for VIC | Marine services | Other Formats
Station Details ID: 085072 Name: EAST SALE AIRPORT Lat: -38.12 Lon: 147.13 Height: 4.6 m
Data from the previous 72 hours. | See also: Recent months at East Sale
Date/Time
EST
Temp

°C
Wind Pressure Rain
since 9am
mm
Weather Cloud Vis
km
Sea
Height
m
Swell
Dir
 
Speed
knots
Gust
knots
hPa Trend Height
m
Period
s
Dir
05/05:30pm 11.9 SE 8 11 1023.2 - 0.0 - Partly cloudy 10 - - - -
05/05:00pm 12.4 ESE 8 10 1023.1 - 0.0 - Partly cloudy 10 - - - -
05/04:30pm 13.2 ESE 8 10 1022.7 - 0.0 - Cloudy 10 - - - -
05/04:00pm 14.9 S 9 14 1022.4 - 0.0 - Cloudy 10 - - - -
05/03:30pm 15.3 WSW 8 10 1022.5 - 0.0 - Partly cloudy 10 - - - -
05/03:00pm 15.4 WSW 9 12 1022.6 F 0.0 - Mostly cloudy 10 - - - -
05/02:30pm 15.5 WSW 9 12 1022.6 - 0.0 - Partly cloudy 10 - - - -
05/02:00pm 14.4 WSW 7 10 1022.6 - 0.0 - Partly cloudy 10 - - - -
05/01:30pm 13.6 WSW 9 14 1022.9 - 0.0 - Partly cloudy 10 - - - -
05/01:00pm 13.5 W 9 13 1023.3 - 0.0 - Partly cloudy 10 - - - -
05/12:30pm 13.3 W 8 11 1023.6 - 0.0 - Partly cloudy 10 - - - -
05/12:00pm 13.1 W 11 15 1023.9 F 0.0 - Cloudy 10 - - - -
05/11:30am 13.0 W 12 16 1024.1 - 0.0 - Cloudy 10 - - - -
05/11:00am 12.3 W 11 14 1024.5 - 0.0 - Cloudy 10 - - - -
05/10:30am 11.9 WNW 12 16 1024.7 - 0.0 - Partly cloudy 10 - - - -
05/10:00am 11.2 WNW 10 12 1024.8 - 0.0 - Cloudy 10 - - - -
05/09:30am 10.6 NNW 6 8 1025.1 - 0.0 - Cloudy 10 - - - -
05/09:00am 9.6 WNW 7 9 1025.2 R 0.0 - Cloudy 10 - - - -
05/08:30am 8.9 NW 6 8 1025.1 - 0.0 - Cloudy 10 - - - -
05/08:00am 8.4 NW 7 9 1024.9 - 0.0 - Partly cloudy 10 - - - -
05/07:30am 7.7 NW 8 9 1024.4 - 0.0 - Cloudy 10 - - - -
05/07:00am 6.8 WNW 6 7 1024.0 - 0.0 - Cloudy 10 - - - -
05/06:30am 6.6 WNW 7 9 1023.8 - 0.0 - Partly cloudy 10 - - - -
05/06:00am 6.8 NNW 10 13 1023.3 S 0.0 - Cloudy 10 - - - -
05/05:30am 5.9 NNW 7 7 1023.3 - 0.0 - Partly cloudy 10 - - - -
05/05:00am 5.8 NW 6 7 1023.2 - 0.0 - Partly cloudy 10 - - - -
05/04:30am 6.1 NW 7 9 1023.0 - 0.0 - Partly cloudy 10 - - - -
05/04:00am 5.7 NW 8 9 1022.7 - 0.0 - Partly cloudy 10 - - - -
05/03:30am 5.8 NW 6 7 1022.7 - 0.0 - Partly cloudy 10 - - - -
05/03:00am 5.3 NW 6 7 1022.8 F 0.0 - Partly cloudy 10 - - - -
05/02:30am 6.1 WNW 5 6 1023.5 - 0.0 - Partly cloudy 10 - - - -
05/02:00am 6.1 W 4 6 1023.6 - 0.0 - Partly cloudy 10 - - - -
05/01:30am 6.6 NNW 5 7 1023.8 - 0.0 - Partly cloudy 10 - - - -
05/01:00am 7.0 WNW 7 7 1023.9 - 0.0 - Partly cloudy 10 - - - -
05/12:30am 6.9 W 8 9 1024.0 - 0.0 - - 10 - - - -
05/12:00am 7.2 WNW 10 11 1024.0 F 0.0 - - 10 - - - -
 
Date/Time
EST
Temp

°C
Wind Pressure Rain
since 9am
mm
Weather Cloud Vis
km
Sea
Height
m
Swell
Dir
 
Speed
knots
Gust
knots
hPa Trend Height
m
Period
s
Dir
04/11:30pm 7.8 NW 7 8 1024.3 - 0.0 - Partly cloudy 10 - - - -
04/11:00pm 9.1 NW 6 7 1024.6 - 0.0 - Cloudy 10 - - - -
04/10:30pm 8.1 NW 7 8 1024.7 - 0.0 - Cloudy 10 - - - -
04/10:00pm 7.3 NW 7 8 1024.8 - 0.0 - Partly cloudy 10 - - - -
04/09:30pm 7.8 NW 7 8 1024.6 - 0.0 - Cloudy 10 - - - -
04/09:00pm 7.8 NW 5 6 1024.6 R 0.0 - Mostly cloudy 10 - - - -
04/08:30pm 8.1 NW 5 5 1024.5 - 0.0 - Cloudy 10 - - - -
04/08:00pm 8.3 W 6 7 1024.3 - 0.0 - Partly cloudy 10 - - - -
04/07:30pm 9.4 WSW 7 11 1024.2 - 0.0 - Partly cloudy 10 - - - -
04/07:00pm 10.1 WSW 9 13 1024.1 - 0.0 - Partly cloudy 10 - - - -
04/06:30pm 9.9 WSW 9 13 1023.7 - 0.0 - - 10 - - - -
04/06:00pm 10.3 WSW 9 13 1023.3 S 0.0 - - 10 - - - -
04/05:30pm 11.4 WSW 11 15 1023.1 - 0.0 - - 10 - - - -
04/05:00pm 12.1 WSW 11 16 1022.9 - 0.0 - - 10 - - - -
04/04:30pm 12.7 W 13 18 1022.6 - 0.0 - - 10 - - - -
04/04:00pm 13.1 W 14 20 1022.5 - 0.0 - - 10 - - - -
04/03:30pm 13.2 W 15 19 1022.4 - 0.0 - Mostly clear 10 - - - -
04/03:00pm 13.3 W 15 22 1022.5 F 0.0 - Mostly clear 10 - - - -
04/02:30pm 13.3 W 15 20 1022.7 - 0.0 - Mostly clear 10 - - - -
04/02:00pm 13.5 W 15 20 1022.6 - 0.0 - Mostly clear 10 - - - -
04/01:30pm 13.5 W 16 19 1022.9 - 0.0 - Mostly clear 10 - - - -
04/01:00pm 12.9 W 14 21 1023.3 - 0.0 - Mostly clear 10 - - - -
04/12:30pm 12.2 W 15 20 1023.9 - 0.0 - Partly cloudy 10 - - - -
04/12:00pm 11.6 W 14 19 1024.5 R 0.0 - Cloudy 10 - - - -
04/11:30am 11.6 WSW 14 19 1024.7 - 0.0 - Cloudy 10 - - - -
04/11:00am 11.6 W 14 19 1024.8 - 0.0 - Partly cloudy 10 - - - -
04/10:30am 11.0 WSW 13 19 1025.0 - 0.0 - Partly cloudy 10 - - - -
04/10:00am 11.4 W 13 19 1025.1 - 0.0 - Partly cloudy 10 - - - -
04/09:30am 10.4 W 11 13 1025.1 - 0.0 - Partly cloudy 10 - - - -
04/09:00am 10.3 W 9 14 1025.2 R 0.0 - Mostly cloudy 10 - - - -
04/08:30am 8.8 NW 8 10 1025.2 - 0.0 - Mostly clear 10 - - - -
04/08:00am 7.2 NW 6 8 1025.0 - 0.0 - Mostly clear 10 - - - -
04/07:30am 5.9 NW 5 6 1024.7 - 0.0 - - 10 - - - -
04/07:00am 3.8 NNW 5 6 1024.4 - 0.0 - - 10 - - - -
04/06:30am 5.5 NNW 4 5 1023.9 - 0.0 - - 10 - - - -
04/06:00am 5.6 NW 6 6 1023.7 R 0.0 - - 10 - - - -
04/05:30am 6.3 W 7 10 1023.4 - 0.0 - - 10 - - - -
04/05:00am 6.5 WSW 7 9 1023.0 - 0.0 - Partly cloudy 10 - - - -
04/04:30am 6.9 WSW 7 9 1022.8 - 0.0 - Cloudy 10 - - - -
04/04:00am 7.4 W 9 13 1022.5 - 0.0 - Cloudy 10 - - - -
04/03:30am 7.9 W 10 13 1022.4 - 0.0 - Partly cloudy 10 - - - -
04/03:00am 8.4 W 12 15 1022.6 R 0.0 - Cloudy 10 - - - -
04/02:30am 8.7 W 11 15 1022.6 - 0.0 - Partly cloudy 10 - - - -
04/02:00am 8.9 WSW 9 12 1022.7 - 0.0 - Cloudy 10 - - - -
04/01:30am 9.2 WSW 10 14 1022.7 - 0.0 - Cloudy 10 - - - -
04/01:00am 9.4 W 11 17 1022.4 - 0.0 - Cloudy 10 - - - -
04/12:30am 9.7 W 13 17 1022.0 - 0.0 - Cloudy 10 - - - -
04/12:00am 9.9 W 13 18 1021.9 R 0.0 - Cloudy 10 - - - -
 
Date/Time
EST
Temp

°C
Wind Pressure Rain
since 9am
mm
Weather Cloud Vis
km
Sea
Height
m
Swell
Dir
 
Speed
knots
Gust
knots
hPa Trend Height
m
Period
s
Dir
03/11:30pm 10.2 WSW 13 16 1021.8 - 0.0 - Cloudy 10 - - - -
03/11:00pm 10.4 W 12 17 1021.6 - 0.0 - Partly cloudy 10 - - - -
03/10:30pm 10.6 W 12 17 1021.4 - 0.0 - Cloudy 10 - - - -
03/10:00pm 11.0 W 11 14 1021.2 - 0.0 - Partly cloudy 10 - - - -
03/09:30pm 11.0 W 6 10 1021.0 - 0.0 - Cloudy 10 - - - -
03/09:00pm 11.4 W 5 7 1020.7 R 0.0 - Cloudy 10 - - - -
03/08:30pm 11.6 SW 6 8 1020.3 - 0.0 - Partly cloudy 10 - - - -
03/08:00pm 11.7 WSW 7 8 1020.0 - 0.0 - Cloudy 10 - - - -
03/07:30pm 11.7 WSW 5 6 1019.7 - 0.0 - Cloudy 10 - - - -
03/07:00pm 11.5 SSW 8 11 1019.3 - 0.0 - Cloudy 10 - - - -
03/06:30pm 11.8 SSW 8 11 1018.9 - 0.0 - Cloudy 10 - - - -
03/06:00pm 11.9 S 10 14 1018.1 R 0.0 - Cloudy 10 - - - -
03/05:30pm 11.9 SSE 11 17 1017.4 - 0.0 - Partly cloudy 10 - - - -
03/05:00pm 12.7 SSE 11 14 1016.8 - 0.0 - Partly cloudy 10 - - - -
03/04:30pm 13.9 S 10 13 1016.0 - 0.0 - Partly cloudy 10 - - - -
03/04:00pm 15.2 SSW 10 14 1015.5 - 0.0 - Partly cloudy 10 - - - -
03/03:30pm 14.2 S 9 13 1015.2 - 0.0 - Partly cloudy 10 - - - -
03/03:00pm 15.2 SW 13 18 1014.7 R 0.0 - Cloudy 10 - - - -
03/02:30pm 15.7 SW 13 17 1014.2 - 0.0 - Partly cloudy 10 - - - -
03/02:00pm 15.9 SSW 13 18 1013.8 - 0.0 - Partly cloudy 10 - - - -
03/01:30pm 15.8 SSW 13 16 1013.5 - 0.0 - Partly cloudy 10 - - - -
03/01:00pm 15.3 SSW 14 20 1013.4 - 0.0 - Mostly clear 10 - - - -
03/12:30pm 15.8 SW 15 18 1013.3 - 0.0 - Cloudy 10 - - - -
03/12:00pm 15.2 SW 11 14 1013.3 R 0.0 - Mostly cloudy 10 - - - -
03/11:30am 14.9 SW 13 16 1013.2 - 0.0 - Cloudy 10 - - - -
03/11:00am 14.6 SSW 13 18 1012.9 - 0.0 - Cloudy 10 - - - -
03/10:30am 14.4 SW 10 17 1012.6 - 0.0 - Cloudy 10 - - - -
03/10:00am 13.3 W 8 11 1012.3 - 0.0 - Partly cloudy 10 - - - -
03/09:30am 12.1 WSW 8 11 1011.8 - 0.0 - Partly cloudy 10 - - - -
03/09:00am 11.6 W 8 12 1010.9 R 0.0 - Cloudy 10 - - - -
03/08:30am 10.9 W 9 10 1010.5 - 0.0 - Mostly clear 10 - - - -
03/08:00am 10.6 W 7 9 1009.9 - 0.0 - Cloudy 10 - - - -
03/07:30am 10.7 W 7 8 1009.6 - 0.0 - Mostly cloudy 10 - - - -
03/07:00am 11.4 WSW 7 11 1009.1 - 0.0 - Mostly cloudy 10 - - - -
03/06:30am 11.5 SW 9 12 1008.6 - 0.0 - Cloudy 10 - - - -
03/06:00am 11.3 SW 8 12 1008.3 R 0.0 - Cloudy 10 - - - -
03/05:30am 10.9 SW 8 11 1007.8 - 0.0 - Cloudy 10 - - - -
03/05:00am 10.7 SW 9 12 1007.5 - 0.0 - Cloudy 10 - - - -
03/04:30am 10.6 WSW 6 8 1007.2 - 0.0 - Cloudy 10 - - - -
03/04:00am 9.8 WSW 6 8 1007.2 - 0.0 - Cloudy 10 - - - -
03/03:30am 8.5 W 5 6 1007.1 - 0.0 - Cloudy 10 - - - -
03/03:00am 8.7 WNW 5 7 1007.1 F 0.0 - Cloudy 10 - - - -
03/02:30am 7.9 WNW 6 7 1006.9 - 0.0 - Cloudy 10 - - - -
03/02:07am 8.0 WNW 7 8 1007.0 - 0.0 - Partly cloudy 10 - - - -
03/02:00am 8.2 WNW 6 7 1007.1 - 0.0 - Partly cloudy 10 - - - -
03/01:30am 8.5 WNW 6 7 1007.4 - 0.0 - Cloudy 10 - - - -
03/01:00am 8.4 NNW 7 9 1007.8 - 0.0 - Cloudy 10 - - - -
03/12:30am 8.2 W 4 6 1007.8 - 0.0 - Cloudy 10 - - - -
03/12:00am 8.7 WNW 3 4 1007.9 F 0.0 - Cloudy 10 - - - -
 
Date/Time
EST
Temp

°C
Wind Pressure Rain
since 9am
mm
Weather Cloud Vis
km
Sea
Height
m
Swell
Dir
 
Speed
knots
Gust
knots
hPa Trend Height
m
Period
s
Dir
02/11:30pm 9.6 WNW 4 5 1008.1 - 0.0 - - 10 - - - -
02/11:00pm 10.3 SSW 7 8 1008.2 - 0.0 - Partly cloudy 10 - - - -
02/10:30pm 10.2 SW 6 7 1008.8 - 0.0 - Cloudy 10 - - - -
02/10:00pm 9.9 SSW 6 7 1008.7 - 0.0 - Cloudy 10 - - - -
02/09:30pm 9.6 SW 6 7 1008.8 - 0.0 - Partly cloudy 10 - - - -
02/09:00pm 9.5 SSW 5 6 1008.9 F 0.0 - Cloudy 10 - - - -
02/08:30pm 8.6 SSW 4 5 1009.0 - 0.0 - - 10 - - - -
02/08:00pm 9.1 SSW 4 5 1009.0 - 0.0 - - 10 - - - -
02/07:30pm 9.4 S 5 5 1009.0 - 0.0 - Partly cloudy 10 - - - -
02/07:00pm 9.7 SSE 3 4 1009.1 - 0.0 - - 10 - - - -
02/06:30pm 10.1 SE 5 6 1008.9 - 0.0 - - 10 - - - -
02/06:00pm 9.9 E 8 9 1008.7 F 0.0 - Mostly clear 10 - - - -

Other Formats:

Comma delimited format used in spreadsheet applications
http://www.bom.gov.au/fwo/IDV60701/IDV60701.94907.axf

JavaScript Object Notation format (JSON) in row-major order
http://www.bom.gov.au/fwo/IDV60701/IDV60701.94907.json